Time;durP1;ratioP1;P1;durP2;ratioP2;P2;SDS_P1;SDS_P2;PMS_P1;PMS_P2;Temp;Humidity;BMP_temperature;BMP_pressure;BME280_temperature;BME280_humidity;BME280_pressure;Samples;Min_cycle;Max_cycle;Signal;HPM_P1;HPM_P2
2023/12/16 00:00:26;;;;;;;;;28.00;25.00;;;;;;;;5094307;27;45394;-71
2023/12/16 00:02:51;;;;;;;;;28.75;20.75;;;;;;;;5086944;27;45574;-71
2023/12/16 00:05:16;;;;;;;;;24.67;20.33;;;;;;;;5090489;27;45624;-71
2023/12/16 00:07:41;;;;;;;;;24.67;21.67;;;;;;;;5091074;27;45200;-71
2023/12/16 00:10:07;;;;;;;;;29.00;20.00;;;;;;;;5094997;27;45450;-72
2023/12/16 00:12:32;;;;;;;;;31.00;25.00;;;;;;;;5091855;27;45220;-71
2023/12/16 00:14:57;;;;;;;;;31.33;21.00;;;;;;;;5095814;27;46675;-71
2023/12/16 00:17:23;;;;;;;;;25.25;21.75;;;;;;;;5088356;27;45431;-71
2023/12/16 00:19:49;;;;;;;;;28.00;22.25;;;;;;;;5088138;27;45463;-71
2023/12/16 00:22:14;;;;;;;;;23.00;21.25;;;;;;;;5089929;27;45566;-71
2023/12/16 00:24:41;;;;;;;;;21.25;18.25;;;;;;;;5084022;27;46412;-71
2023/12/16 00:27:06;;;;;;;;;20.50;19.00;;;;;;;;5069903;27;45590;-72
2023/12/16 00:29:31;;;;;;;;;20.00;16.00;;;;;;;;5062768;28;45438;-71
2023/12/16 00:31:56;;;;;;;;;28.67;20.33;;;;;;;;5086544;27;45846;-70
2023/12/16 00:34:21;;;;;;;;;22.33;18.00;;;;;;;;5093492;27;46384;-71
2023/12/16 00:36:48;;;;;;;;;26.00;17.67;;;;;;;;5097384;27;45644;-72
2023/12/16 00:39:13;;;;;;;;;23.25;17.25;;;;;;;;5093601;27;45473;-71
2023/12/16 00:41:39;;;;;;;;;24.50;19.00;;;;;;;;5095150;27;45514;-71
2023/12/16 00:44:04;;;;;;;;;26.50;21.50;;;;;;;;5087429;27;46588;-70
2023/12/16 00:46:30;;;;;;;;;17.50;15.50;;;;;;;;5086420;27;45399;-73
2023/12/16 00:48:55;;;;;;;;;17.75;16.25;;;;;;;;5096475;27;45418;-71
2023/12/16 00:51:21;;;;;;;;;20.25;16.50;;;;;;;;5093567;27;45394;-71
2023/12/16 00:53:46;;;;;;;;;20.75;16.25;;;;;;;;5094327;27;45805;-71
2023/12/16 00:56:12;;;;;;;;;30.00;20.75;;;;;;;;5096100;27;45441;-71
2023/12/16 00:58:37;;;;;;;;;24.75;18.25;;;;;;;;5086080;27;45394;-71
2023/12/16 01:01:02;;;;;;;;;24.00;17.75;;;;;;;;5089365;27;45418;-71
2023/12/16 01:03:27;;;;;;;;;24.75;20.00;;;;;;;;5097292;27;46455;-71
2023/12/16 01:05:52;;;;;;;;;23.33;22.00;;;;;;;;5095238;27;45457;-72
2023/12/16 01:08:18;;;;;;;;;20.33;20.33;;;;;;;;5088525;27;45485;-71
2023/12/16 01:10:43;;;;;;;;;20.67;15.33;;;;;;;;5085452;27;46909;-73
2023/12/16 01:13:08;;;;;;;;;25.00;20.50;;;;;;;;5084053;27;46256;-71
2023/12/16 01:15:33;;;;;;;;;21.33;20.00;;;;;;;;5091713;27;45413;-71
2023/12/16 01:17:58;;;;;;;;;25.75;19.50;;;;;;;;5082082;27;45372;-71
2023/12/16 01:20:23;;;;;;;;;21.33;21.33;;;;;;;;5091266;27;45335;-71
2023/12/16 01:22:49;;;;;;;;;27.33;23.67;;;;;;;;5083092;27;46210;-71
2023/12/16 01:25:14;;;;;;;;;24.25;21.50;;;;;;;;5089315;27;45413;-72
2023/12/16 01:27:39;;;;;;;;;23.75;19.50;;;;;;;;5082669;27;45705;-70
2023/12/16 01:30:05;;;;;;;;;24.00;20.00;;;;;;;;5087830;27;45575;-70
2023/12/16 01:32:31;;;;;;;;;22.25;19.00;;;;;;;;5080956;27;46666;-70
2023/12/16 01:34:56;;;;;;;;;19.00;19.00;;;;;;;;5096857;27;45865;-70
2023/12/16 01:37:22;;;;;;;;;25.00;20.00;;;;;;;;5095274;27;45283;-71
2023/12/16 01:39:47;;;;;;;;;29.50;25.00;;;;;;;;5096562;27;45482;-70
2023/12/16 01:42:12;;;;;;;;;25.50;21.00;;;;;;;;5087934;27;45634;-70
2023/12/16 01:44:37;;;;;;;;;25.33;20.67;;;;;;;;5087785;27;45444;-70
2023/12/16 01:47:03;;;;;;;;;25.00;21.25;;;;;;;;5091355;27;45586;-70
2023/12/16 01:49:28;;;;;;;;;23.75;20.75;;;;;;;;5082130;27;45138;-70
2023/12/16 01:51:54;;;;;;;;;25.00;22.00;;;;;;;;5094161;27;45550;-71
2023/12/16 01:54:19;;;;;;;;;24.75;22.50;;;;;;;;5084332;27;45359;-70
2023/12/16 01:56:48;;;;;;;;;32.50;20.50;;;;;;;;5086895;27;45315;-70
2023/12/16 01:59:13;;;;;;;;;29.75;20.00;;;;;;;;5094628;27;45410;-70
2023/12/16 02:01:38;;;;;;;;;21.00;19.00;;;;;;;;5075246;27;47830;-71
2023/12/16 02:04:04;;;;;;;;;24.67;19.67;;;;;;;;5076122;27;45998;-71
2023/12/16 02:06:29;;;;;;;;;19.00;16.25;;;;;;;;5094554;27;45488;-71
2023/12/16 02:08:54;;;;;;;;;25.67;19.67;;;;;;;;5086894;27;45432;-71
2023/12/16 02:11:19;;;;;;;;;19.25;18.25;;;;;;;;5084417;27;45600;-70
2023/12/16 02:13:44;;;;;;;;;28.00;23.67;;;;;;;;5079336;27;45359;-69
2023/12/16 02:16:10;;;;;;;;;21.33;21.33;;;;;;;;5092484;27;45351;-70
2023/12/16 02:18:35;;;;;;;;;28.25;21.25;;;;;;;;5097236;27;45333;-70
2023/12/16 02:21:01;;;;;;;;;30.25;21.00;;;;;;;;5084903;27;45959;-69
2023/12/16 02:23:26;;;;;;;;;27.00;22.50;;;;;;;;5089894;27;45425;-70
2023/12/16 02:25:51;;;;;;;;;21.25;19.50;;;;;;;;5091729;27;45427;-70
2023/12/16 02:28:16;;;;;;;;;27.50;20.00;;;;;;;;5089908;27;45375;-71
2023/12/16 02:30:41;;;;;;;;;25.33;24.00;;;;;;;;5091469;27;45738;-70
2023/12/16 02:33:07;;;;;;;;;23.00;20.67;;;;;;;;5093315;27;45429;-71
2023/12/16 02:35:33;;;;;;;;;25.00;22.00;;;;;;;;5093894;27;45377;-70
2023/12/16 02:37:58;;;;;;;;;28.75;23.75;;;;;;;;5074967;27;45383;-70
2023/12/16 02:40:24;;;;;;;;;31.00;20.50;;;;;;;;5096939;27;46545;-70
2023/12/16 02:42:49;;;;;;;;;34.00;29.00;;;;;;;;5096035;27;45448;-70
2023/12/16 02:45:14;;;;;;;;;26.33;22.33;;;;;;;;5094731;27;45294;-72
2023/12/16 02:47:39;;;;;;;;;25.00;22.00;;;;;;;;5096980;27;45735;-70
2023/12/16 02:50:07;;;;;;;;;27.25;23.00;;;;;;;;5092284;27;46125;-70
2023/12/16 02:52:32;;;;;;;;;22.25;22.25;;;;;;;;5087841;27;45730;-70
2023/12/16 02:54:57;;;;;;;;;31.67;26.67;;;;;;;;5095166;27;45691;-70
2023/12/16 02:57:23;;;;;;;;;26.67;21.67;;;;;;;;5076384;27;45367;-69
2023/12/16 02:59:48;;;;;;;;;23.00;20.50;;;;;;;;5091143;27;45390;-71
2023/12/16 03:02:13;;;;;;;;;27.67;21.00;;;;;;;;5092649;27;45677;-70
2023/12/16 03:04:38;;;;;;;;;18.67;18.00;;;;;;;;5096776;27;45411;-71
2023/12/16 03:07:03;;;;;;;;;31.00;23.00;;;;;;;;5091046;27;45410;-73
2023/12/16 03:09:29;;;;;;;;;29.25;23.50;;;;;;;;5095076;27;45681;-72
2023/12/16 03:11:54;;;;;;;;;26.00;22.00;;;;;;;;5096445;27;45434;-73
2023/12/16 03:14:20;;;;;;;;;30.00;21.00;;;;;;;;5089162;27;45507;-71
2023/12/16 03:16:45;;;;;;;;;22.25;22.25;;;;;;;;5100935;27;45460;-72
2023/12/16 03:19:10;;;;;;;;;30.25;22.00;;;;;;;;5097264;27;45850;-71
2023/12/16 03:21:36;;;;;;;;;27.75;18.00;;;;;;;;5098648;27;45401;-72
2023/12/16 03:24:03;;;;;;;;;27.50;21.25;;;;;;;;5093486;27;45521;-72
2023/12/16 03:26:28;;;;;;;;;22.25;17.50;;;;;;;;5094194;27;45301;-71
2023/12/16 03:28:54;;;;;;;;;20.67;17.00;;;;;;;;5095570;27;46449;-72
2023/12/16 03:31:19;;;;;;;;;20.33;19.00;;;;;;;;5090375;27;45594;-71
2023/12/16 03:33:44;;;;;;;;;21.75;18.75;;;;;;;;5073317;27;45502;-73
2023/12/16 03:36:09;;;;;;;;;22.67;19.33;;;;;;;;5096295;27;45266;-72
2023/12/16 03:38:34;;;;;;;;;21.75;17.50;;;;;;;;5094341;27;46389;-74
2023/12/16 03:41:00;;;;;;;;;17.67;16.00;;;;;;;;5097976;27;45189;-72
2023/12/16 03:43:25;;;;;;;;;23.50;16.25;;;;;;;;5098405;27;45446;-73
2023/12/16 03:45:50;;;;;;;;;22.33;15.33;;;;;;;;5094703;27;45329;-71
2023/12/16 03:48:15;;;;;;;;;14.33;13.33;;;;;;;;5093328;27;47050;-72
2023/12/16 03:50:40;;;;;;;;;22.00;15.00;;;;;;;;5095573;27;45384;-71
2023/12/16 03:53:05;;;;;;;;;18.67;15.00;;;;;;;;5096537;27;45640;-73
2023/12/16 03:55:31;;;;;;;;;14.00;12.00;;;;;;;;5097916;27;45570;-71
2023/12/16 03:57:56;;;;;;;;;12.00;10.33;;;;;;;;5095873;27;45733;-72
2023/12/16 04:00:21;;;;;;;;;19.00;17.00;;;;;;;;5098493;27;45439;-71
2023/12/16 04:02:46;;;;;;;;;13.00;13.00;;;;;;;;5094776;27;45467;-72
2023/12/16 04:05:12;;;;;;;;;12.75;11.50;;;;;;;;5081261;27;45266;-72
2023/12/16 04:07:38;;;;;;;;;16.25;14.50;;;;;;;;5097475;27;46695;-72
2023/12/16 04:10:03;;;;;;;;;14.33;13.00;;;;;;;;5090846;27;45436;-71
2023/12/16 04:12:29;;;;;;;;;25.75;14.00;;;;;;;;5089827;27;45462;-72
2023/12/16 04:14:54;;;;;;;;;18.50;13.75;;;;;;;;5081783;27;45643;-72
2023/12/16 04:17:19;;;;;;;;;16.00;13.33;;;;;;;;5094104;27;45505;-72
2023/12/16 04:19:51;;;;;;;;;17.33;13.00;;;;;;;;5091463;27;45521;-71
2023/12/16 04:22:17;;;;;;;;;17.50;15.00;;;;;;;;5094311;27;45511;-71
2023/12/16 04:24:42;;;;;;;;;20.00;15.25;;;;;;;;5097886;27;45440;-73
2023/12/16 04:27:07;;;;;;;;;13.00;12.33;;;;;;;;5098053;27;45973;-72
2023/12/16 04:29:32;;;;;;;;;13.67;13.67;;;;;;;;5094193;27;45570;-71
2023/12/16 04:31:57;;;;;;;;;18.00;16.67;;;;;;;;5098942;27;45367;-72
2023/12/16 04:34:23;;;;;;;;;14.00;13.67;;;;;;;;5096662;27;46644;-72
2023/12/16 04:36:48;;;;;;;;;13.00;13.00;;;;;;;;5090676;27;46221;-72
2023/12/16 04:39:13;;;;;;;;;15.33;14.67;;;;;;;;5086619;27;45566;-71
2023/12/16 04:41:38;;;;;;;;;19.50;16.00;;;;;;;;5091977;27;45379;-72
2023/12/16 04:44:03;;;;;;;;;22.67;17.67;;;;;;;;5092057;27;45599;-72
2023/12/16 04:46:29;;;;;;;;;16.50;15.00;;;;;;;;5093570;27;46215;-73
2023/12/16 04:48:54;;;;;;;;;15.67;12.67;;;;;;;;5094555;27;45393;-72
2023/12/16 04:51:19;;;;;;;;;20.50;15.25;;;;;;;;5083271;27;45546;-73
2023/12/16 04:53:45;;;;;;;;;14.00;13.25;;;;;;;;5096388;27;45488;-72
2023/12/16 04:56:10;;;;;;;;;15.00;13.00;;;;;;;;5098091;27;46782;-71
2023/12/16 04:58:35;;;;;;;;;19.00;13.00;;;;;;;;5098033;27;45406;-72
2023/12/16 05:01:00;;;;;;;;;24.33;18.00;;;;;;;;5099101;27;45392;-71
2023/12/16 05:03:25;;;;;;;;;19.00;15.00;;;;;;;;5092838;27;45708;-72
2023/12/16 05:05:51;;;;;;;;;18.25;15.25;;;;;;;;5092806;27;45538;-71
2023/12/16 05:08:16;;;;;;;;;20.00;18.25;;;;;;;;5098987;27;45287;-74
2023/12/16 05:10:42;;;;;;;;;21.50;15.50;;;;;;;;5097355;27;45509;-72
2023/12/16 05:13:10;;;;;;;;;21.50;17.50;;;;;;;;5087896;27;45469;-70
2023/12/16 05:15:37;;;;;;;;;26.25;16.75;;;;;;;;5097777;27;45757;-72
2023/12/16 05:18:02;;;;;;;;;16.00;14.75;;;;;;;;5098137;27;45548;-71
2023/12/16 05:20:27;;;;;;;;;20.33;17.00;;;;;;;;5093793;27;45222;-72
2023/12/16 05:22:52;;;;;;;;;25.33;19.67;;;;;;;;5091473;27;45465;-71
2023/12/16 05:25:17;;;;;;;;;20.33;18.67;;;;;;;;5097128;27;46555;-72
2023/12/16 05:27:42;;;;;;;;;22.75;19.25;;;;;;;;5088506;27;45458;-71
2023/12/16 05:30:08;;;;;;;;;16.00;14.00;;;;;;;;5098294;27;45444;-73
2023/12/16 05:32:33;;;;;;;;;27.25;13.25;;;;;;;;5098150;27;45650;-71
2023/12/16 05:34:58;;;;;;;;;24.33;19.00;;;;;;;;5097072;27;45443;-71
2023/12/16 05:37:23;;;;;;;;;22.75;20.50;;;;;;;;5089011;27;45489;-71
2023/12/16 05:39:49;;;;;;;;;24.00;17.00;;;;;;;;5090343;27;45709;-73
2023/12/16 05:42:14;;;;;;;;;21.33;20.00;;;;;;;;5093483;27;46290;-72
2023/12/16 05:44:39;;;;;;;;;21.33;20.33;;;;;;;;5097391;27;46882;-72
2023/12/16 05:47:05;;;;;;;;;21.00;18.50;;;;;;;;5097879;27;45413;-72
2023/12/16 05:49:31;;;;;;;;;21.75;19.50;;;;;;;;5098618;27;45538;-72
2023/12/16 05:51:56;;;;;;;;;20.67;17.33;;;;;;;;5094292;27;45566;-72
2023/12/16 05:54:23;;;;;;;;;17.75;13.75;;;;;;;;5087444;27;46274;-71
2023/12/16 05:56:48;;;;;;;;;20.25;16.00;;;;;;;;5098147;27;45535;-72
2023/12/16 05:59:13;;;;;;;;;14.25;12.75;;;;;;;;5096318;27;45397;-72
2023/12/16 06:04:04;;;;;;;;;14.00;12.75;;;;;;;;5210791;22;66002;-73
2023/12/16 06:06:30;;;;;;;;;22.67;15.67;;;;;;;;5097899;27;45504;-70
2023/12/16 06:08:56;;;;;;;;;21.75;14.00;;;;;;;;5097151;27;45429;-73
2023/12/16 06:11:22;;;;;;;;;15.50;15.25;;;;;;;;5095616;27;45443;-71
2023/12/16 06:13:48;;;;;;;;;19.25;15.50;;;;;;;;5096623;27;46430;-72
2023/12/16 06:16:14;;;;;;;;;17.75;16.25;;;;;;;;5092654;27;45413;-71
2023/12/16 06:18:39;;;;;;;;;18.00;13.25;;;;;;;;5097930;27;45328;-71
2023/12/16 06:21:05;;;;;;;;;17.00;13.00;;;;;;;;5097131;27;45301;-71
2023/12/16 06:23:31;;;;;;;;;20.75;15.75;;;;;;;;5097704;27;46089;-72
2023/12/16 06:25:56;;;;;;;;;18.50;15.00;;;;;;;;5096717;27;45176;-72
2023/12/16 06:28:22;;;;;;;;;18.75;15.25;;;;;;;;5097872;27;45235;-70
2023/12/16 06:30:47;;;;;;;;;17.67;12.67;;;;;;;;5089790;27;45372;-71
2023/12/16 06:33:12;;;;;;;;;18.00;13.33;;;;;;;;5097167;27;46944;-71
2023/12/16 06:35:37;;;;;;;;;14.67;14.00;;;;;;;;5097345;27;45509;-70
2023/12/16 06:38:02;;;;;;;;;16.50;11.00;;;;;;;;5092913;27;45211;-73
2023/12/16 06:40:27;;;;;;;;;20.67;14.33;;;;;;;;5095938;27;45292;-71
2023/12/16 06:42:53;;;;;;;;;19.33;16.33;;;;;;;;5094529;27;47055;-72
2023/12/16 06:45:19;;;;;;;;;14.00;13.00;;;;;;;;5094253;27;45530;-72
2023/12/16 06:47:44;;;;;;;;;21.33;16.00;;;;;;;;5095683;27;45431;-71
2023/12/16 06:50:09;;;;;;;;;25.00;17.67;;;;;;;;5093214;27;45346;-71
2023/12/16 06:52:34;;;;;;;;;16.50;16.00;;;;;;;;5097440;27;45989;-70
2023/12/16 06:54:59;;;;;;;;;21.50;15.50;;;;;;;;5094659;27;45509;-73
2023/12/16 06:57:25;;;;;;;;;18.33;16.00;;;;;;;;5096995;27;45283;-72
2023/12/16 06:59:50;;;;;;;;;16.50;16.25;;;;;;;;5091151;27;45381;-70
2023/12/16 07:02:15;;;;;;;;;20.75;16.25;;;;;;;;5095002;27;46437;-71
2023/12/16 07:04:41;;;;;;;;;21.75;17.50;;;;;;;;5097075;27;45802;-71
2023/12/16 07:07:06;;;;;;;;;18.25;17.00;;;;;;;;5096925;27;45177;-72
2023/12/16 07:09:32;;;;;;;;;19.75;14.25;;;;;;;;5097271;27;45431;-71
2023/12/16 07:11:57;;;;;;;;;20.67;16.00;;;;;;;;5089368;27;46740;-71
2023/12/16 07:14:22;;;;;;;;;22.67;16.00;;;;;;;;5093300;27;45290;-70
2023/12/16 07:16:47;;;;;;;;;22.50;16.50;;;;;;;;5094218;27;45675;-71
2023/12/16 07:19:14;;;;;;;;;21.25;15.25;;;;;;;;5093317;27;46135;-73
2023/12/16 07:21:42;;;;;;;;;18.00;16.00;;;;;;;;5093276;27;45770;-70
2023/12/16 07:24:07;;;;;;;;;16.50;13.00;;;;;;;;5095663;27;45469;-71
2023/12/16 07:26:32;;;;;;;;;21.33;17.00;;;;;;;;5076902;27;45282;-71
2023/12/16 07:28:57;;;;;;;;;23.67;16.33;;;;;;;;5094260;27;45471;-71
2023/12/16 07:31:23;;;;;;;;;17.67;16.33;;;;;;;;5096052;27;45510;-73
2023/12/16 07:33:48;;;;;;;;;17.00;15.00;;;;;;;;5095743;27;45457;-71
2023/12/16 07:36:15;;;;;;;;;19.75;15.75;;;;;;;;5093410;27;45437;-70
2023/12/16 07:38:40;;;;;;;;;17.75;14.50;;;;;;;;5094287;27;45438;-71
2023/12/16 07:41:06;;;;;;;;;17.67;10.33;;;;;;;;5095782;27;46752;-71
2023/12/16 07:43:32;;;;;;;;;17.50;16.25;;;;;;;;5094119;27;45551;-71
2023/12/16 07:45:57;;;;;;;;;16.25;16.25;;;;;;;;5096269;27;45364;-70
2023/12/16 07:48:22;;;;;;;;;20.50;12.50;;;;;;;;5095773;27;45345;-72
2023/12/16 07:50:47;;;;;;;;;22.00;16.33;;;;;;;;5090683;27;45478;-71
2023/12/16 07:53:13;;;;;;;;;20.00;16.50;;;;;;;;5092030;27;45393;-69
2023/12/16 07:55:38;;;;;;;;;20.75;19.25;;;;;;;;5092993;27;45289;-69
2023/12/16 07:58:03;;;;;;;;;22.25;16.50;;;;;;;;5082830;27;45397;-71
2023/12/16 08:00:28;;;;;;;;;23.33;18.00;;;;;;;;5088417;27;45856;-71
2023/12/16 08:02:54;;;;;;;;;19.50;13.25;;;;;;;;5084480;27;45513;-71
2023/12/16 08:05:19;;;;;;;;;68.50;44.50;;;;;;;;5083223;27;45309;-70
2023/12/16 08:07:45;;;;;;;;;66.33;47.67;;;;;;;;5086050;27;45403;-71
2023/12/16 08:10:10;;;;;;;;;62.50;44.00;;;;;;;;5084013;27;45859;-69
2023/12/16 08:12:35;;;;;;;;;65.67;47.33;;;;;;;;5087847;27;45677;-72
2023/12/16 08:15:04;;;;;;;;;63.50;48.50;;;;;;;;5082101;27;45354;-72
2023/12/16 08:17:29;;;;;;;;;74.00;50.00;;;;;;;;5081093;27;45472;-69
2023/12/16 08:19:54;;;;;;;;;62.67;44.00;;;;;;;;5086418;27;46672;-70
2023/12/16 08:22:20;;;;;;;;;60.25;45.25;;;;;;;;5081981;27;45445;-70
2023/12/16 08:24:45;;;;;;;;;56.50;41.00;;;;;;;;5086511;27;45521;-71
2023/12/16 08:27:10;;;;;;;;;43.33;37.33;;;;;;;;5087633;27;45491;-69
2023/12/16 08:29:36;;;;;;;;;55.00;39.00;;;;;;;;5084619;27;46578;-71
2023/12/16 08:32:01;;;;;;;;;52.00;41.25;;;;;;;;5084988;27;45447;-72
2023/12/16 08:34:27;;;;;;;;;52.75;39.50;;;;;;;;5078797;27;45607;-70
2023/12/16 08:36:53;;;;;;;;;48.25;39.75;;;;;;;;5086993;27;45565;-73
2023/12/16 08:39:19;;;;;;;;;39.25;26.75;;;;;;;;5083722;27;46758;-72
2023/12/16 08:41:44;;;;;;;;;38.50;33.25;;;;;;;;5081990;27;45466;-70
2023/12/16 08:44:09;;;;;;;;;41.00;35.25;;;;;;;;5084571;27;45422;-72
2023/12/16 08:46:41;;;;;;;;;37.00;31.25;;;;;;;;5085347;27;45537;-70
2023/12/16 08:49:06;;;;;;;;;49.25;36.75;;;;;;;;5072359;27;48374;-73
2023/12/16 08:51:32;;;;;;;;;37.00;33.00;;;;;;;;5092424;27;45303;-72
2023/12/16 08:53:57;;;;;;;;;34.75;33.00;;;;;;;;5095278;27;45326;-71
2023/12/16 08:56:22;;;;;;;;;41.25;33.25;;;;;;;;5089397;27;45326;-72
2023/12/16 08:58:47;;;;;;;;;37.67;31.33;;;;;;;;5098330;27;46408;-72
2023/12/16 09:01:13;;;;;;;;;43.33;38.00;;;;;;;;5077148;27;45527;-71
2023/12/16 09:03:41;;;;;;;;;44.67;36.00;;;;;;;;5095606;27;45415;-75
2023/12/16 09:06:06;;;;;;;;;33.75;31.50;;;;;;;;5095897;27;45628;-76
2023/12/16 09:08:34;;;;;;;;;42.50;36.75;;;;;;;;5096179;27;46732;-75
2023/12/16 09:10:59;;;;;;;;;58.25;44.00;;;;;;;;5096031;27;45498;-74
2023/12/16 09:13:25;;;;;;;;;48.00;38.00;;;;;;;;5071779;27;46713;-76
2023/12/16 09:15:50;;;;;;;;;50.00;43.00;;;;;;;;5079643;27;45676;-77
2023/12/16 09:18:15;;;;;;;;;50.00;40.33;;;;;;;;5094167;27;45488;-74
2023/12/16 09:20:40;;;;;;;;;36.00;33.67;;;;;;;;5095662;27;45745;-72
2023/12/16 09:23:05;;;;;;;;;45.25;39.50;;;;;;;;5096816;27;45366;-72
2023/12/16 09:25:31;;;;;;;;;44.25;40.00;;;;;;;;5096300;27;45427;-72
2023/12/16 09:27:56;;;;;;;;;49.33;38.00;;;;;;;;5093939;27;46781;-72
2023/12/16 09:30:22;;;;;;;;;49.67;40.67;;;;;;;;5097532;27;45355;-71
2023/12/16 09:32:47;;;;;;;;;46.50;40.25;;;;;;;;5098261;27;45425;-72
2023/12/16 09:35:12;;;;;;;;;52.00;38.50;;;;;;;;5097816;27;46227;-73
2023/12/16 09:37:38;;;;;;;;;50.25;38.00;;;;;;;;5098208;27;46076;-72
2023/12/16 09:40:03;;;;;;;;;45.33;38.33;;;;;;;;5097659;27;45247;-72
2023/12/16 09:42:29;;;;;;;;;58.00;44.00;;;;;;;;5098377;27;45544;-72
2023/12/16 09:44:57;;;;;;;;;34.75;31.75;;;;;;;;5098046;27;45418;-72
2023/12/16 09:47:23;;;;;;;;;45.00;38.00;;;;;;;;5097977;27;45894;-75
2023/12/16 09:49:49;;;;;;;;;46.00;37.50;;;;;;;;5096523;27;45411;-78
2023/12/16 09:52:14;;;;;;;;;37.50;30.75;;;;;;;;5091421;27;45479;-78
2023/12/16 09:54:39;;;;;;;;;34.67;27.67;;;;;;;;5077236;27;45584;-77
2023/12/16 09:57:05;;;;;;;;;37.33;28.00;;;;;;;;5078719;27;48813;-77
2023/12/16 09:59:31;;;;;;;;;46.50;36.00;;;;;;;;5068650;27;45615;-78
2023/12/16 10:01:58;;;;;;;;;33.25;26.75;;;;;;;;5074378;27;45394;-78
2023/12/16 10:04:24;;;;;;;;;34.00;27.25;;;;;;;;5093287;27;45406;-77
2023/12/16 10:06:49;;;;;;;;;23.00;20.75;;;;;;;;5098530;27;46856;-78
2023/12/16 10:09:15;;;;;;;;;31.00;27.75;;;;;;;;5098128;27;45377;-79
2023/12/16 10:11:40;;;;;;;;;32.00;28.00;;;;;;;;5077688;27;45579;-76
2023/12/16 10:14:06;;;;;;;;;43.00;36.00;;;;;;;;5091874;27;45369;-77
2023/12/16 10:16:32;;;;;;;;;32.50;26.75;;;;;;;;5097647;27;45471;-77
2023/12/16 10:18:57;;;;;;;;;48.50;38.75;;;;;;;;5084872;27;45224;-78
2023/12/16 10:21:33;;;;;;;;;48.75;38.25;;;;;;;;5071073;27;45725;-79
2023/12/16 10:23:59;;;;;;;;;33.00;26.50;;;;;;;;5079114;27;45510;-77
2023/12/16 10:26:24;;;;;;;;;32.00;27.75;;;;;;;;5068331;27;47606;-68
2023/12/16 10:28:50;;;;;;;;;24.75;24.75;;;;;;;;5084647;27;45415;-69
2023/12/16 10:31:18;;;;;;;;;28.00;25.50;;;;;;;;5087115;27;46120;-69
2023/12/16 10:33:43;;;;;;;;;27.00;23.00;;;;;;;;5068444;27;45596;-68
2023/12/16 10:36:08;;;;;;;;;23.75;20.25;;;;;;;;5092577;27;46713;-69
2023/12/16 10:38:34;;;;;;;;;23.25;21.25;;;;;;;;5093095;27;45445;-70
2023/12/16 10:40:59;;;;;;;;;22.75;19.00;;;;;;;;5091467;27;45482;-69
2023/12/16 10:43:24;;;;;;;;;18.67;17.00;;;;;;;;5092727;27;45652;-68
2023/12/16 10:45:50;;;;;;;;;44.33;36.00;;;;;;;;5089219;27;45622;-68
2023/12/16 10:48:16;;;;;;;;;18.50;14.25;;;;;;;;5089113;27;45440;-69
2023/12/16 10:50:45;;;;;;;;;16.25;14.50;;;;;;;;5088748;27;45440;-68
2023/12/16 10:53:23;;;;;;;;;19.50;10.50;;;;;;;;5070193;27;45514;-68
2023/12/16 10:55:52;;;;;;;;;14.25;12.25;;;;;;;;5062573;27;47655;-68
2023/12/16 10:58:20;;;;;;;;;19.50;15.00;;;;;;;;5092708;27;45587;-67
2023/12/16 11:00:48;;;;;;;;;14.00;14.00;;;;;;;;5088451;27;45475;-69
2023/12/16 11:03:33;;;;;;;;;14.25;14.25;;;;;;;;5084880;27;45673;-68
2023/12/16 11:06:13;;;;;;;;;15.75;14.25;;;;;;;;5066734;27;46725;-68
2023/12/16 11:08:39;;;;;;;;;21.50;18.25;;;;;;;;5078974;27;45892;-69
2023/12/16 11:11:04;;;;;;;;;18.75;13.00;;;;;;;;5078823;27;45691;-66
2023/12/16 11:13:30;;;;;;;;;13.75;11.25;;;;;;;;5076051;27;45426;-70
2023/12/16 11:15:59;;;;;;;;;12.25;12.25;;;;;;;;5081704;27;46123;-68
2023/12/16 11:18:28;;;;;;;;;14.00;10.00;;;;;;;;5075182;27;45520;-68
2023/12/16 11:20:54;;;;;;;;;12.75;11.00;;;;;;;;5078607;27;45558;-69
2023/12/16 11:23:19;;;;;;;;;9.00;9.00;;;;;;;;5077970;27;45477;-70
2023/12/16 11:25:45;;;;;;;;;16.00;9.67;;;;;;;;5077755;27;46410;-70
2023/12/16 11:28:13;;;;;;;;;10.25;8.25;;;;;;;;5073496;27;45737;-70
2023/12/16 11:30:39;;;;;;;;;10.75;9.50;;;;;;;;5078241;27;47002;-70
2023/12/16 11:33:04;;;;;;;;;16.25;13.50;;;;;;;;5083128;27;45766;-70
2023/12/16 11:35:39;;;;;;;;;14.50;11.25;;;;;;;;5093344;27;46478;-70
2023/12/16 11:38:05;;;;;;;;;8.00;8.00;;;;;;;;5091218;27;45583;-70
2023/12/16 11:40:43;;;;;;;;;12.75;9.00;;;;;;;;5086796;27;45679;-69
2023/12/16 11:43:12;;;;;;;;;15.00;9.67;;;;;;;;5083676;27;45929;-74
2023/12/16 11:45:42;;;;;;;;;9.00;9.00;;;;;;;;5087007;27;45653;-69
2023/12/16 11:48:16;;;;;;;;;12.33;8.67;;;;;;;;5081037;27;45812;-73
2023/12/16 11:50:44;;;;;;;;;14.67;8.00;;;;;;;;5086281;27;45501;-70
2023/12/16 11:53:09;;;;;;;;;9.00;8.00;;;;;;;;5083684;27;45700;-70
2023/12/16 11:55:35;;;;;;;;;11.33;8.00;;;;;;;;5067546;27;47719;-70
2023/12/16 11:58:00;;;;;;;;;14.33;10.33;;;;;;;;5082875;27;45962;-70
2023/12/16 12:00:26;;;;;;;;;8.00;8.00;;;;;;;;5086500;27;46659;-69
2023/12/16 12:02:51;;;;;;;;;15.00;11.67;;;;;;;;5083644;27;45473;-71
2023/12/16 12:05:16;;;;;;;;;20.67;10.33;;;;;;;;5096321;27;46573;-71
2023/12/16 12:07:42;;;;;;;;;15.33;10.00;;;;;;;;5095577;27;45468;-70
2023/12/16 12:10:08;;;;;;;;;15.67;10.33;;;;;;;;5098531;27;45548;-70
2023/12/16 12:12:34;;;;;;;;;18.00;9.33;;;;;;;;5094445;27;45471;-70
2023/12/16 12:14:59;;;;;;;;;15.33;8.67;;;;;;;;5079751;27;47709;-71
2023/12/16 12:17:26;;;;;;;;;11.33;9.33;;;;;;;;5098229;27;45501;-70
2023/12/16 12:19:51;;;;;;;;;9.00;7.00;;;;;;;;5080926;27;45395;-70
2023/12/16 12:22:19;;;;;;;;;11.67;8.00;;;;;;;;5100116;27;45242;-70
2023/12/16 12:24:44;;;;;;;;;14.67;10.33;;;;;;;;5091513;27;46706;-72
2023/12/16 12:27:09;;;;;;;;;11.33;10.00;;;;;;;;5098841;27;45368;-71
2023/12/16 12:29:53;;;;;;;;;11.33;9.00;;;;;;;;5098625;27;45345;-69
2023/12/16 12:32:19;;;;;;;;;15.33;11.00;;;;;;;;5079512;27;45299;-71
2023/12/16 12:34:44;;;;;;;;;13.33;11.00;;;;;;;;5095974;27;46082;-73
2023/12/16 12:37:09;;;;;;;;;15.33;8.67;;;;;;;;5095031;27;45509;-71
2023/12/16 12:39:34;;;;;;;;;14.00;11.67;;;;;;;;5098875;27;45406;-73
2023/12/16 12:42:00;;;;;;;;;14.00;10.33;;;;;;;;5095256;27;45537;-70
2023/12/16 12:44:26;;;;;;;;;10.00;9.67;;;;;;;;5095456;27;47468;-70
2023/12/16 12:46:51;;;;;;;;;12.00;11.00;;;;;;;;5097989;27;45308;-71
2023/12/16 12:49:17;;;;;;;;;10.67;9.00;;;;;;;;5092246;27;45437;-71
2023/12/16 12:51:49;;;;;;;;;14.67;10.00;;;;;;;;5091645;27;45446;-70
2023/12/16 12:54:14;;;;;;;;;9.00;9.00;;;;;;;;5094436;27;45929;-70
2023/12/16 12:56:39;;;;;;;;;10.33;7.33;;;;;;;;5087245;27;45398;-70
2023/12/16 12:59:05;;;;;;;;;13.33;9.33;;;;;;;;5093444;27;45620;-70
2023/12/16 13:01:30;;;;;;;;;10.33;7.00;;;;;;;;5100908;27;45432;-70
2023/12/16 13:03:55;;;;;;;;;15.00;11.33;;;;;;;;5096977;27;46667;-70
2023/12/16 13:06:20;;;;;;;;;9.33;8.67;;;;;;;;5100499;27;45473;-71
2023/12/16 13:08:45;;;;;;;;;12.33;10.00;;;;;;;;5094663;27;45470;-70
2023/12/16 13:11:11;;;;;;;;;10.33;10.33;;;;;;;;5097601;27;45477;-70
2023/12/16 13:13:36;;;;;;;;;15.33;11.00;;;;;;;;5095152;27;45738;-70
2023/12/16 13:16:01;;;;;;;;;9.33;9.33;;;;;;;;5096306;27;45466;-70
2023/12/16 13:18:27;;;;;;;;;13.00;9.00;;;;;;;;5095403;27;45451;-71
2023/12/16 13:20:52;;;;;;;;;10.00;8.00;;;;;;;;5098674;27;45544;-70
2023/12/16 13:23:17;;;;;;;;;5.00;5.00;;;;;;;;5097878;27;45690;-70
2023/12/16 13:25:43;;;;;;;;;9.67;8.00;;;;;;;;5092830;27;45317;-69
2023/12/16 13:28:08;;;;;;;;;9.33;9.33;;;;;;;;5096461;27;45441;-69
2023/12/16 13:30:33;;;;;;;;;10.00;8.00;;;;;;;;5098386;27;45555;-71
2023/12/16 13:32:59;;;;;;;;;10.33;8.67;;;;;;;;5095544;27;46131;-73
2023/12/16 13:35:24;;;;;;;;;7.75;7.25;;;;;;;;5102710;27;45639;-72
2023/12/16 13:37:49;;;;;;;;;9.67;8.00;;;;;;;;5075293;27;45436;-71
2023/12/16 13:40:15;;;;;;;;;8.00;8.00;;;;;;;;5097745;27;45478;-71
2023/12/16 13:42:40;;;;;;;;;10.75;7.75;;;;;;;;5095857;27;45702;-71
2023/12/16 13:45:06;;;;;;;;;10.00;7.75;;;;;;;;5086079;27;45545;-69
2023/12/16 13:47:31;;;;;;;;;9.67;9.00;;;;;;;;5091009;27;45430;-72
2023/12/16 13:49:57;;;;;;;;;8.67;8.67;;;;;;;;5097594;27;45514;-69
2023/12/16 13:52:22;;;;;;;;;7.67;7.00;;;;;;;;5092759;27;46831;-70
2023/12/16 13:54:48;;;;;;;;;9.00;5.00;;;;;;;;5096699;27;45406;-73
2023/12/16 13:57:13;;;;;;;;;8.33;7.00;;;;;;;;5089444;27;45460;-72
2023/12/16 13:59:38;;;;;;;;;15.67;8.00;;;;;;;;5095127;27;46807;-72
2023/12/16 14:02:04;;;;;;;;;10.00;10.00;;;;;;;;5098013;27;45552;-71
2023/12/16 14:04:29;;;;;;;;;9.33;7.00;;;;;;;;5074044;27;45465;-72
2023/12/16 14:06:54;;;;;;;;;7.67;6.33;;;;;;;;5092131;27;45544;-71
2023/12/16 14:09:20;;;;;;;;;8.00;7.00;;;;;;;;5095068;27;45421;-71
2023/12/16 14:11:45;;;;;;;;;11.00;8.00;;;;;;;;5092264;27;45460;-70